Time;durP1;ratioP1;P1;durP2;ratioP2;P2;SDS_P1;SDS_P2;PMS_P1;PMS_P2;Temp;Humidity;BMP_temperature;BMP_pressure;BME280_temperature;BME280_humidity;BME280_pressure;Samples;Min_cycle;Max_cycle;Signal;HPM_P1;HPM_P2
2021/08/12 00:00:43;;;;;;;6.07;4.22;;;;;;;20.06;69.33;100207.56;1628444;54;20133;-81
2021/08/12 00:02:16;;;;;;;9.13;4.50;;;;;;;20.10;69.29;100203.41;1627136;54;20705;-80
2021/08/12 00:03:50;;;;;;;7.15;3.83;;;;;;;20.06;69.36;100199.41;1627909;54;20042;-80
2021/08/12 00:05:24;;;;;;;9.93;5.13;;;;;;;20.07;69.01;100201.09;1628554;54;20039;-80
2021/08/12 00:06:57;;;;;;;12.38;5.07;;;;;;;20.00;69.35;100200.25;1627323;47;20125;-80
2021/08/12 00:08:31;;;;;;;8.63;4.45;;;;;;;19.90;69.57;100199.78;1627556;48;20046;-81
2021/08/12 00:10:07;;;;;;;14.05;5.47;;;;;;;19.79;70.21;100204.72;1628446;54;20057;-80
2021/08/12 00:11:41;;;;;;;8.48;5.07;;;;;;;19.70;70.42;100195.06;1628746;54;20146;-82
2021/08/12 00:13:15;;;;;;;8.00;5.25;;;;;;;19.63;70.41;100197.75;1628551;54;20031;-79
2021/08/12 00:14:48;;;;;;;13.70;5.68;;;;;;;19.55;70.64;100207.94;1628098;39;20087;-80
2021/08/12 00:16:22;;;;;;;9.77;5.30;;;;;;;19.48;71.13;100205.19;1627871;47;20115;-80
2021/08/12 00:17:56;;;;;;;7.07;5.10;;;;;;;19.40;71.28;100203.47;1628591;54;20062;-80
2021/08/12 00:19:29;;;;;;;7.32;4.65;;;;;;;19.32;71.85;100209.03;1628060;47;20106;-81
2021/08/12 00:21:03;;;;;;;14.40;5.43;;;;;;;19.24;71.82;100210.00;1628250;54;20157;-80
2021/08/12 00:22:37;;;;;;;9.85;4.90;;;;;;;19.18;72.11;100202.69;1627202;54;20130;-81
2021/08/12 00:24:11;;;;;;;11.30;5.38;;;;;;;19.16;72.39;100208.31;1628388;54;20127;-81
2021/08/12 00:25:46;;;;;;;9.25;5.57;;;;;;;19.15;72.13;100209.34;1628080;39;20919;-80
2021/08/12 00:27:19;;;;;;;7.40;4.50;;;;;;;19.11;72.59;100209.94;1628392;47;20094;-80
2021/08/12 00:28:53;;;;;;;7.50;4.93;;;;;;;19.08;72.68;100207.63;1627190;47;20153;-81
2021/08/12 00:30:27;;;;;;;9.55;5.40;;;;;;;19.02;72.58;100211.94;1628381;54;20090;-80
2021/08/12 00:32:00;;;;;;;11.02;5.07;;;;;;;18.95;72.83;100213.78;1628696;54;20057;-80
2021/08/12 00:33:34;;;;;;;9.05;5.40;;;;;;;18.92;73.13;100208.69;1628302;54;20050;-80
2021/08/12 00:35:09;;;;;;;9.38;5.38;;;;;;;18.85;73.39;100211.34;1628473;54;20062;-79
2021/08/12 00:36:43;;;;;;;10.23;5.40;;;;;;;18.83;73.39;100206.13;1628450;54;20406;-80
2021/08/12 00:38:16;;;;;;;8.25;4.78;;;;;;;18.80;73.68;100206.50;1628209;54;20098;-80
2021/08/12 00:39:50;;;;;;;10.55;5.90;;;;;;;18.78;73.58;100208.59;1629422;39;21774;-80
2021/08/12 00:41:25;;;;;;;9.65;4.70;;;;;;;18.77;73.89;100212.34;1627262;47;20106;-80
2021/08/12 00:42:59;;;;;;;8.45;5.53;;;;;;;18.80;73.55;100202.97;1627986;47;20042;-80
2021/08/12 00:44:33;;;;;;;8.30;5.03;;;;;;;18.80;73.33;100203.81;1627826;54;20046;-79
2021/08/12 00:46:07;;;;;;;13.18;4.68;;;;;;;18.85;73.55;100203.22;1628008;54;20691;-80
2021/08/12 00:47:40;;;;;;;11.52;5.38;;;;;;;18.87;73.64;100201.16;1627953;54;20069;-80
2021/08/12 00:49:14;;;;;;;8.73;5.57;;;;;;;18.90;73.43;100205.34;1628093;54;20077;-80
2021/08/12 00:50:49;;;;;;;8.02;4.82;;;;;;;18.97;73.30;100201.69;1627907;54;20065;-80
2021/08/12 00:52:23;;;;;;;9.95;5.85;;;;;;;19.00;73.19;100201.31;1627817;54;20059;-80
2021/08/12 00:53:57;;;;;;;8.05;4.60;;;;;;;19.05;72.81;100203.44;1628076;54;20597;-79
2021/08/12 00:55:31;;;;;;;9.10;4.78;;;;;;;19.15;72.50;100203.94;1627993;47;20591;-81
2021/08/12 00:57:07;;;;;;;7.47;3.78;;;;;;;19.18;72.14;100197.28;1628119;54;20062;-81
2021/08/12 00:58:41;;;;;;;7.82;5.10;;;;;;;19.24;72.26;100203.78;1628052;47;20065;-80
2021/08/12 01:00:17;;;;;;;7.90;4.82;;;;;;;19.30;72.11;100192.13;1627989;54;20098;-81
2021/08/12 01:01:50;;;;;;;5.90;4.10;;;;;;;19.36;71.70;100198.63;1628486;54;20043;-80
2021/08/12 01:03:24;;;;;;;10.57;4.90;;;;;;;19.38;71.39;100197.38;1628506;46;20038;-80
2021/08/12 01:04:58;;;;;;;12.93;5.22;;;;;;;19.36;71.82;100195.91;1628780;54;20065;-81
2021/08/12 01:06:35;;;;;;;7.15;4.35;;;;;;;19.37;71.49;100193.00;1628560;54;20564;-80
2021/08/12 01:08:15;;;;;;;7.82;4.80;;;;;;;19.40;71.47;100198.03;1628609;47;20034;-80
2021/08/12 01:09:55;;;;;;;8.13;4.40;;;;;;;19.41;71.48;100198.88;1627790;46;20764;-80
2021/08/12 01:11:35;;;;;;;7.70;4.80;;;;;;;19.45;71.64;100197.44;1627608;54;20044;-81
2021/08/12 01:13:19;;;;;;;7.93;4.88;;;;;;;19.40;71.39;100202.63;1628547;54;20090;-80
2021/08/12 01:15:00;;;;;;;10.55;5.13;;;;;;;19.35;71.65;100197.81;1629040;54;20106;-80
2021/08/12 01:16:39;;;;;;;6.78;4.85;;;;;;;19.29;72.05;100201.28;1628794;54;20056;-80
2021/08/12 01:18:16;;;;;;;7.88;4.72;;;;;;;19.27;72.15;100201.50;1628520;54;20042;-80
2021/08/12 01:20:06;;;;;;;8.40;4.43;;;;;;;19.23;72.24;100199.38;1628522;54;20544;-80
2021/08/12 01:21:55;;;;;;;7.00;4.63;;;;;;;19.19;72.82;100198.94;1628365;54;20050;-80
2021/08/12 01:23:29;;;;;;;11.50;4.78;;;;;;;19.15;72.88;100198.50;1628610;54;20046;-81
2021/08/12 01:25:07;;;;;;;11.95;5.80;;;;;;;19.14;73.03;100199.53;1628691;47;20050;-79
2021/08/12 01:26:44;;;;;;;7.78;5.13;;;;;;;19.08;73.36;100196.78;1628276;47;20065;-79
2021/08/12 01:28:23;;;;;;;8.57;4.95;;;;;;;18.96;73.65;100200.03;1628359;54;20088;-80
2021/08/12 01:30:04;;;;;;;9.82;4.47;;;;;;;18.95;73.85;100205.63;1628937;54;20054;-79
2021/08/12 01:31:49;;;;;;;7.25;4.68;;;;;;;19.00;73.67;100200.47;1627848;54;20054;-79
2021/08/12 01:33:37;;;;;;;7.13;3.92;;;;;;;19.01;73.38;100207.56;1628305;54;20050;-79
2021/08/12 01:35:15;;;;;;;7.60;4.45;;;;;;;19.04;73.31;100200.91;1628009;47;20043;-80
2021/08/12 01:36:54;;;;;;;6.78;3.88;;;;;;;19.06;73.46;100204.25;1627992;47;20785;-80
2021/08/12 01:38:29;;;;;;;8.23;4.65;;;;;;;19.02;73.63;100212.78;1629011;54;20062;-80
2021/08/12 01:40:06;;;;;;;10.10;5.57;;;;;;;18.98;73.54;100213.38;1628457;54;20650;-80
2021/08/12 01:41:38;;;;;;;10.23;4.53;;;;;;;18.97;73.93;100209.00;1627932;31;20498;-80
2021/08/12 01:43:17;;;;;;;10.75;4.22;;;;;;;18.98;73.72;100211.50;1627545;54;20089;-80
2021/08/12 01:44:54;;;;;;;8.60;4.63;;;;;;;18.99;73.49;100210.47;1627510;47;20058;-80
2021/08/12 01:46:29;;;;;;;8.77;5.05;;;;;;;18.98;73.93;100210.69;1627690;54;20042;-81
2021/08/12 01:48:05;;;;;;;10.30;4.88;;;;;;;18.88;73.59;100205.56;1627634;47;20556;-80
2021/08/12 01:49:41;;;;;;;12.95;5.30;;;;;;;18.73;74.11;100208.34;1629290;39;20578;-80
2021/08/12 01:51:17;;;;;;;13.02;4.78;;;;;;;18.59;74.29;100210.09;1628065;47;20149;-81
2021/08/12 01:52:53;;;;;;;8.77;5.38;;;;;;;18.52;74.73;100209.19;1627257;54;20046;-81
2021/08/12 01:54:29;;;;;;;12.02;6.10;;;;;;;18.46;74.41;100208.09;1628164;54;20588;-81
2021/08/12 01:56:04;;;;;;;9.40;5.20;;;;;;;18.39;74.66;100207.19;1627352;46;20713;-80
2021/08/12 01:57:39;;;;;;;9.75;4.28;;;;;;;18.32;74.83;100206.28;1627995;54;20134;-81
2021/08/12 01:59:15;;;;;;;8.90;4.95;;;;;;;18.28;74.55;100202.28;1628187;54;20098;-80
2021/08/12 02:00:51;;;;;;;8.25;5.32;;;;;;;18.26;74.88;100210.59;1628442;54;20125;-81
2021/08/12 02:02:26;;;;;;;8.32;5.35;;;;;;;18.21;74.77;100203.06;1627318;47;20176;-81
2021/08/12 02:04:00;;;;;;;8.77;5.10;;;;;;;18.18;75.17;100206.13;1626798;47;20038;-79
2021/08/12 02:05:35;;;;;;;7.63;5.53;;;;;;;18.12;75.24;100201.50;1627270;47;20039;-80
2021/08/12 02:07:13;;;;;;;8.07;5.40;;;;;;;18.06;75.49;100202.22;1627149;54;20031;-80
2021/08/12 02:08:46;;;;;;;9.40;5.78;;;;;;;18.03;75.27;100206.16;1627148;54;20043;-80
2021/08/12 02:10:21;;;;;;;8.35;5.07;;;;;;;17.98;75.72;100207.75;1627802;46;21962;-80
2021/08/12 02:11:54;;;;;;;8.27;5.55;;;;;;;17.95;75.43;100211.66;1627496;54;20734;-81
2021/08/12 02:13:28;;;;;;;8.90;5.43;;;;;;;17.93;75.49;100208.28;1626620;47;20141;-79
2021/08/12 02:14:59;;;;;;;8.68;5.18;;;;;;;17.89;75.71;100209.72;1625883;39;20752;-78
2021/08/12 02:16:33;;;;;;;7.30;5.13;;;;;;;17.85;75.55;100208.41;1623934;47;20034;-79
2021/08/12 02:18:07;;;;;;;10.15;4.75;;;;;;;17.81;75.83;100212.50;1624739;47;20549;-79
2021/08/12 02:19:41;;;;;;;9.00;4.90;;;;;;;17.77;75.75;100209.34;1624586;49;20045;-80
2021/08/12 02:21:16;;;;;;;8.93;5.20;;;;;;;17.76;76.00;100216.63;1624889;47;20039;-80
2021/08/12 02:22:55;;;;;;;8.15;4.88;;;;;;;17.76;76.18;100210.34;1626613;47;20129;-79
2021/08/12 02:24:36;;;;;;;9.05;5.35;;;;;;;17.81;75.87;100204.38;1629157;54;20248;-79
2021/08/12 02:26:13;;;;;;;9.50;5.05;;;;;;;17.86;75.78;100208.19;1627835;54;20046;-79
2021/08/12 02:27:50;;;;;;;8.57;5.32;;;;;;;17.89;75.93;100205.13;1627006;54;20042;-79
2021/08/12 02:29:24;;;;;;;7.07;4.68;;;;;;;17.92;75.89;100193.94;1627115;47;20154;-79
2021/08/12 02:31:00;;;;;;;8.43;4.80;;;;;;;17.99;75.61;100204.03;1627931;47;20146;-79
2021/08/12 02:32:35;;;;;;;8.65;4.70;;;;;;;18.05;75.55;100187.88;1627186;39;20596;-80
2021/08/12 02:34:09;;;;;;;7.18;4.35;;;;;;;18.09;75.03;100186.47;1627692;54;20146;-78
2021/08/12 02:35:43;;;;;;;10.25;5.15;;;;;;;18.14;74.88;100193.19;1627240;54;20110;-79
2021/08/12 02:37:20;;;;;;;7.45;4.60;;;;;;;18.19;74.76;100188.88;1627515;47;20541;-79
2021/08/12 02:38:57;;;;;;;6.88;4.38;;;;;;;18.24;74.71;100191.81;1625798;47;20034;-79
2021/08/12 02:40:32;;;;;;;9.27;4.57;;;;;;;18.26;74.60;100193.50;1627969;54;20115;-79
2021/08/12 02:42:07;;;;;;;8.70;4.95;;;;;;;18.26;74.61;100193.50;1626057;47;20106;-79
2021/08/12 02:43:42;;;;;;;8.60;5.25;;;;;;;18.27;74.80;100195.19;1628515;39;20529;-79
2021/08/12 02:45:16;;;;;;;8.55;4.53;;;;;;;18.28;74.39;100196.88;1627019;54;20046;-80
2021/08/12 02:46:51;;;;;;;10.23;4.95;;;;;;;18.29;74.47;100193.97;1625259;47;20034;-79
2021/08/12 02:48:27;;;;;;;11.13;5.40;;;;;;;18.31;74.30;100196.50;1625316;47;20035;-79
2021/08/12 02:50:03;;;;;;;6.95;4.50;;;;;;;18.31;74.33;100196.50;1625539;46;20142;-79
2021/08/12 02:51:38;;;;;;;8.15;5.30;;;;;;;18.30;74.59;100184.00;1625068;54;20585;-79
2021/08/12 02:53:12;;;;;;;7.28;4.63;;;;;;;18.30;74.53;100178.56;1626264;54;20103;-80
2021/08/12 02:54:50;;;;;;;8.52;5.13;;;;;;;18.29;74.89;100176.91;1627630;54;20149;-78
2021/08/12 02:56:26;;;;;;;8.48;5.22;;;;;;;18.22;75.01;100180.38;1627718;47;20117;-79
2021/08/12 02:58:00;;;;;;;14.05;4.75;;;;;;;18.20;75.16;100171.59;1626710;54;20600;-79
2021/08/12 02:59:34;;;;;;;11.45;4.75;;;;;;;18.24;74.93;100174.75;1627854;39;20560;-79
2021/08/12 03:01:08;;;;;;;8.70;4.90;;;;;;;18.25;74.91;100171.03;1627695;54;20038;-79
2021/08/12 03:02:45;;;;;;;7.88;4.60;;;;;;;18.25;74.78;100176.44;1629761;39;20461;-78
2021/08/12 03:04:20;;;;;;;9.52;5.38;;;;;;;18.21;75.00;100173.28;1627741;39;20467;-80
2021/08/12 03:05:55;;;;;;;13.70;8.38;;;;;;;18.19;75.37;100172.63;1625559;47;20050;-79
2021/08/12 03:07:30;;;;;;;20.50;14.98;;;;;;;18.17;75.22;100161.16;1626569;47;20165;-79
2021/08/12 03:09:04;;;;;;;12.00;7.65;;;;;;;18.19;75.40;100167.22;1627015;39;20541;-79
2021/08/12 03:10:42;;;;;;;9.80;6.22;;;;;;;18.16;75.20;100164.91;1626631;47;20057;-79
2021/08/12 03:12:15;;;;;;;9.23;4.75;;;;;;;18.15;75.26;100171.34;1626271;47;20125;-79
2021/08/12 03:13:53;;;;;;;12.68;8.55;;;;;;;18.16;75.59;100172.19;1625533;54;20053;-79
2021/08/12 03:15:28;;;;;;;10.80;6.55;;;;;;;18.14;75.63;100169.66;1626801;54;20094;-79
2021/08/12 03:17:04;;;;;;;13.27;6.50;;;;;;;18.12;75.44;100169.03;1626443;47;20106;-79
2021/08/12 03:18:38;;;;;;;13.30;6.35;;;;;;;18.09;75.54;100174.81;1626416;54;20034;-79
2021/08/12 03:20:13;;;;;;;9.32;5.18;;;;;;;18.08;75.43;100175.84;1626711;54;20043;-79
2021/08/12 03:22:06;;;;;;;8.68;4.75;;;;;;;18.08;75.42;100173.13;1627473;39;20414;-79
2021/08/12 03:23:41;;;;;;;9.07;4.53;;;;;;;18.04;75.62;100175.38;1625581;47;20046;-79
2021/08/12 03:25:16;;;;;;;8.80;5.05;;;;;;;18.04;75.38;100177.25;1627221;47;20082;-79
2021/08/12 03:26:56;;;;;;;12.63;5.75;;;;;;;17.99;75.51;100177.84;1627220;54;20130;-79
2021/08/12 03:28:31;;;;;;;10.30;4.53;;;;;;;17.95;75.56;100165.69;1627213;54;20038;-80
2021/08/12 03:30:05;;;;;;;14.88;4.80;;;;;;;17.94;75.69;100169.41;1627294;47;20086;-79
2021/08/12 03:31:39;;;;;;;9.00;5.07;;;;;;;17.92;75.84;100180.44;1627194;46;20030;-80
2021/08/12 03:33:13;;;;;;;12.10;5.95;;;;;;;17.89;75.91;100169.97;1627070;54;20034;-80
2021/08/12 03:34:47;;;;;;;10.70;5.75;;;;;;;17.91;75.55;100177.88;1627423;47;20043;-80
2021/08/12 03:36:21;;;;;;;10.40;4.78;;;;;;;17.92;75.85;100172.31;1627460;54;20142;-80
2021/08/12 03:37:55;;;;;;;10.52;4.32;;;;;;;17.94;75.51;100174.81;1629642;54;20076;-79
2021/08/12 03:39:29;;;;;;;8.95;4.70;;;;;;;17.95;75.58;100178.38;1629705;54;20695;-82
2021/08/12 03:41:04;;;;;;;12.95;5.63;;;;;;;17.93;75.57;100186.66;1628256;39;20440;-79
2021/08/12 03:42:39;;;;;;;9.27;5.25;;;;;;;17.93;75.34;100183.97;1627757;47;20034;-79
2021/08/12 03:44:13;;;;;;;7.93;4.50;;;;;;;17.95;75.23;100181.09;1626288;54;20045;-79
2021/08/12 03:45:47;;;;;;;8.73;4.80;;;;;;;17.95;75.15;100191.91;1626669;47;20034;-79
2021/08/12 03:47:22;;;;;;;15.63;7.10;;;;;;;17.93;75.36;100187.50;1629046;54;20094;-79
2021/08/12 03:48:56;;;;;;;9.93;5.40;;;;;;;17.91;75.26;100192.28;1629149;54;20065;-78
2021/08/12 03:50:30;;;;;;;11.38;5.38;;;;;;;17.88;75.46;100192.63;1629952;47;20030;-79
2021/08/12 03:52:04;;;;;;;8.30;4.93;;;;;;;17.81;75.75;100191.72;1630101;54;20035;-78
2021/08/12 03:53:38;;;;;;;9.52;4.97;;;;;;;17.82;75.75;100192.53;1630910;54;20043;-79
2021/08/12 03:55:13;;;;;;;11.45;4.97;;;;;;;17.81;75.51;100193.56;1630579;54;20062;-79
2021/08/12 03:56:47;;;;;;;8.50;4.18;;;;;;;17.79;75.52;100196.47;1630286;54;20049;-78
2021/08/12 03:58:22;;;;;;;9.57;5.15;;;;;;;17.76;75.65;100192.28;1630515;47;20042;-78
2021/08/12 03:59:56;;;;;;;9.55;4.90;;;;;;;17.75;75.67;100195.19;1630914;39;20815;-78
2021/08/12 04:01:30;;;;;;;7.55;4.18;;;;;;;17.76;75.48;100195.00;1630251;54;20103;-78
2021/08/12 04:03:03;;;;;;;14.90;5.28;;;;;;;17.77;75.78;100195.81;1628750;54;20041;-78
2021/08/12 04:04:37;;;;;;;13.45;6.10;;;;;;;17.73;75.89;100195.34;1629343;54;20069;-78
2021/08/12 04:06:10;;;;;;;14.90;6.30;;;;;;;17.70;75.63;100201.16;1629078;47;20050;-80
2021/08/12 04:07:44;;;;;;;10.23;5.05;;;;;;;17.65;75.99;100187.34;1630317;47;20089;-77
2021/08/12 04:09:18;;;;;;;8.25;4.65;;;;;;;17.66;76.11;100199.03;1629651;54;20037;-78
2021/08/12 04:10:52;;;;;;;11.07;5.78;;;;;;;17.62;76.00;100207.50;1631879;39;20535;-79
2021/08/12 04:12:25;;;;;;;10.15;4.90;;;;;;;17.56;76.29;100192.03;1630133;54;20041;-77
2021/08/12 04:14:00;;;;;;;9.18;5.15;;;;;;;17.55;76.07;100203.00;1630170;47;20046;-80
2021/08/12 04:15:34;;;;;;;10.00;5.60;;;;;;;17.51;76.52;100204.44;1630313;54;20200;-79
2021/08/12 04:17:07;;;;;;;9.50;4.63;;;;;;;17.53;76.62;100211.31;1630137;54;20046;-80
2021/08/12 04:18:42;;;;;;;8.38;4.28;;;;;;;17.56;76.24;100200.16;1630274;54;20042;-79
2021/08/12 04:20:16;;;;;;;11.38;5.85;;;;;;;17.58;76.06;100202.66;1630439;54;20073;-79
2021/08/12 04:21:49;;;;;;;10.82;4.85;;;;;;;17.46;76.37;100199.59;1630346;54;20711;-78
2021/08/12 04:23:23;;;;;;;9.93;5.07;;;;;;;17.43;76.56;100197.25;1630564;47;20069;-77
2021/08/12 04:24:56;;;;;;;8.63;4.53;;;;;;;17.47;76.68;100214.78;1630810;54;20482;-79
2021/08/12 04:26:30;;;;;;;10.88;4.65;;;;;;;17.53;76.33;100205.06;1631133;54;20046;-80
2021/08/12 04:28:04;;;;;;;11.27;5.20;;;;;;;17.58;76.23;100203.47;1630784;47;20106;-78
2021/08/12 04:29:39;;;;;;;9.07;4.88;;;;;;;17.60;76.02;100206.84;1631212;54;20106;-77
2021/08/12 04:31:12;;;;;;;10.77;5.05;;;;;;;17.65;75.90;100197.34;1631312;54;20541;-82
2021/08/12 04:32:46;;;;;;;9.48;4.53;;;;;;;17.69;75.84;100201.34;1631243;54;20081;-81
2021/08/12 04:34:20;;;;;;;11.18;5.15;;;;;;;17.72;75.44;100196.38;1631055;54;20086;-81
2021/08/12 04:35:53;;;;;;;9.63;5.55;;;;;;;17.74;75.69;100196.22;1630845;54;20038;-81
2021/08/12 04:37:27;;;;;;;11.35;4.95;;;;;;;17.74;75.52;100198.91;1630781;46;20050;-81
2021/08/12 04:39:00;;;;;;;8.57;5.28;;;;;;;17.73;75.35;100200.75;1630717;47;20147;-81
2021/08/12 04:40:34;;;;;;;7.70;4.90;;;;;;;17.75;75.49;100198.72;1630716;54;20045;-81
2021/08/12 04:42:08;;;;;;;12.10;4.82;;;;;;;17.76;75.31;100200.41;1630880;54;20077;-81
2021/08/12 04:43:41;;;;;;;11.85;4.70;;;;;;;17.80;75.32;100200.03;1634010;31;20705;-81
2021/08/12 04:45:19;;;;;;;13.05;7.22;;;;;;;17.82;75.11;100197.97;1630564;47;20038;-81
2021/08/12 04:46:52;;;;;;;9.52;5.38;;;;;;;17.81;75.10;100202.53;1631137;54;20039;-81
2021/08/12 04:48:26;;;;;;;11.15;5.80;;;;;;;17.79;75.23;100196.47;1631192;46;20095;-78
2021/08/12 04:50:00;;;;;;;15.65;4.68;;;;;;;17.79;75.30;100201.88;1631349;54;20034;-79
2021/08/12 04:51:34;;;;;;;13.82;5.32;;;;;;;17.81;75.10;100194.44;1631002;54;20886;-79
2021/08/12 04:53:07;;;;;;;11.10;4.78;;;;;;;17.83;75.03;100189.69;1631319;46;20046;-78
2021/08/12 04:54:41;;;;;;;7.93;3.90;;;;;;;17.84;75.40;100196.75;1630913;47;20054;-81
2021/08/12 04:56:14;;;;;;;16.45;5.72;;;;;;;17.88;75.09;100198.03;1630762;54;20039;-82
2021/08/12 04:57:48;;;;;;;8.55;5.15;;;;;;;17.89;75.08;100207.84;1631195;39;21115;-82
2021/08/12 04:59:22;;;;;;;10.35;4.72;;;;;;;17.91;74.72;100208.50;1630557;46;20158;-80
2021/08/12 05:00:57;;;;;;;10.63;4.82;;;;;;;17.96;75.03;100209.78;1630504;54;20714;-80
2021/08/12 05:02:31;;;;;;;9.63;5.10;;;;;;;17.97;74.82;100209.63;1630316;47;20071;-80
2021/08/12 05:04:05;;;;;;;9.80;5.45;;;;;;;18.00;74.91;100211.94;1630699;46;20061;-81
2021/08/12 05:05:39;;;;;;;12.15;6.03;;;;;;;18.01;74.58;100207.38;1630994;47;20718;-82
2021/08/12 05:07:12;;;;;;;10.65;5.55;;;;;;;18.01;74.42;100215.50;1631005;39;20497;-81
2021/08/12 05:08:46;;;;;;;22.48;7.30;;;;;;;18.01;74.36;100210.09;1631072;39;20877;-80
2021/08/12 05:10:20;;;;;;;10.85;6.43;;;;;;;17.99;74.31;100214.84;1632719;39;20623;-82
2021/08/12 05:11:54;;;;;;;11.07;6.10;;;;;;;18.02;74.16;100214.47;1630832;54;20041;-81
2021/08/12 05:13:27;;;;;;;9.98;5.38;;;;;;;18.00;74.22;100211.13;1630917;54;20069;-82
2021/08/12 05:15:01;;;;;;;15.10;7.00;;;;;;;18.04;74.15;100217.84;1630976;54;20077;-80
2021/08/12 05:16:36;;;;;;;12.52;5.20;;;;;;;18.07;74.12;100218.28;1630522;47;22038;-80
2021/08/12 05:18:10;;;;;;;14.20;6.45;;;;;;;18.09;74.26;100209.97;1629710;47;20710;-80
2021/08/12 05:19:44;;;;;;;11.45;5.93;;;;;;;18.09;74.19;100209.97;1630426;47;20046;-79
2021/08/12 05:21:17;;;;;;;9.80;5.50;;;;;;;18.08;73.90;100219.13;1630503;47;20132;-81
2021/08/12 05:22:51;;;;;;;12.35;6.30;;;;;;;18.13;73.97;100210.44;1630748;54;20062;-81
2021/08/12 05:24:24;;;;;;;14.27;5.97;;;;;;;18.19;73.53;100210.50;1630614;54;20160;-81
2021/08/12 05:25:58;;;;;;;17.65;5.80;;;;;;;18.22;73.19;100206.59;1631589;39;20575;-83
2021/08/12 05:27:32;;;;;;;18.42;5.40;;;;;;;18.21;73.40;100213.88;1630517;54;20066;-81
2021/08/12 05:29:06;;;;;;;13.68;5.20;;;;;;;18.24;73.05;100213.47;1630426;47;20069;-80
2021/08/12 05:30:40;;;;;;;12.48;6.35;;;;;;;18.26;73.10;100207.03;1630409;54;20038;-80
2021/08/12 05:32:15;;;;;;;14.93;5.70;;;;;;;18.28;73.17;100210.41;1630582;54;20039;-83
2021/08/12 05:33:49;;;;;;;14.88;6.03;;;;;;;18.32;73.06;100211.69;1630687;54;20059;-82
2021/08/12 05:35:23;;;;;;;13.88;6.53;;;;;;;18.33;72.82;100222.31;1630800;54;20070;-80
2021/08/12 05:36:56;;;;;;;12.50;5.35;;;;;;;18.36;72.95;100212.97;1632342;31;20690;-78
2021/08/12 05:38:30;;;;;;;13.95;5.72;;;;;;;18.41;72.54;100221.38;1631159;39;20324;-84
2021/08/12 05:40:03;;;;;;;18.83;6.85;;;;;;;18.38;72.35;100227.97;1631382;54;20062;-80
2021/08/12 05:41:37;;;;;;;14.48;6.03;;;;;;;18.26;72.53;100237.66;1631511;46;20034;-80
2021/08/12 05:43:11;;;;;;;12.75;5.68;;;;;;;18.16;73.24;100229.81;1631000;47;20048;-80
2021/08/12 05:44:44;;;;;;;17.17;7.68;;;;;;;18.20;72.99;100231.13;1631177;47;20042;-79
2021/08/12 05:46:18;;;;;;;18.35;6.75;;;;;;;18.27;72.99;100222.25;1630929;46;20046;-80
2021/08/12 05:47:53;;;;;;;14.80;6.35;;;;;;;18.35;72.81;100219.41;1631193;47;20049;-80
2021/08/12 05:49:27;;;;;;;14.05;6.25;;;;;;;18.39;72.74;100223.44;1631007;54;20057;-78
2021/08/12 05:51:00;;;;;;;20.00;6.57;;;;;;;18.42;72.35;100217.59;1631041;54;20046;-80
2021/08/12 05:52:34;;;;;;;18.73;5.95;;;;;;;18.44;72.69;100220.97;1630797;54;20042;-80
2021/08/12 05:54:08;;;;;;;21.10;6.28;;;;;;;18.48;72.76;100218.72;1631005;47;20053;-80
2021/08/12 05:55:42;;;;;;;12.90;5.45;;;;;;;18.53;72.21;100222.50;1630815;54;20054;-79
2021/08/12 05:57:16;;;;;;;18.98;6.43;;;;;;;18.54;72.24;100223.38;1630915;54;20042;-80
2021/08/12 05:58:49;;;;;;;19.08;7.00;;;;;;;18.54;72.22;100223.38;1635356;31;20671;-79
2021/08/12 06:00:23;;;;;;;15.18;6.30;;;;;;;18.54;72.38;100232.31;1630755;47;20820;-80
2021/08/12 06:01:57;;;;;;;13.35;6.53;;;;;;;18.53;72.41;100227.94;1630706;47;20050;-82
2021/08/12 06:03:32;;;;;;;20.23;6.82;;;;;;;18.53;72.46;100229.81;1630766;54;20073;-81
2021/08/12 06:05:06;;;;;;;19.65;7.15;;;;;;;18.47;72.23;100223.31;1630999;54;20045;-80
2021/08/12 06:06:41;;;;;;;17.90;6.20;;;;;;;18.37;72.77;100229.00;1633347;39;20370;-79
2021/08/12 06:08:15;;;;;;;14.90;6.07;;;;;;;18.35;72.99;100216.72;1631479;54;20085;-77
2021/08/12 06:09:49;;;;;;;15.93;6.32;;;;;;;18.39;73.03;100223.44;1630766;54;20046;-78
2021/08/12 06:11:23;;;;;;;21.92;7.07;;;;;;;18.39;72.89;100220.72;1631392;39;20685;-84
2021/08/12 06:12:56;;;;;;;18.58;6.93;;;;;;;18.40;72.86;100223.22;1633686;39;20133;-81
2021/08/12 06:14:30;;;;;;;13.32;5.80;;;;;;;18.42;72.56;100225.72;1631153;54;20058;-78
2021/08/12 06:16:03;;;;;;;11.02;5.30;;;;;;;18.49;72.39;100225.81;1630935;47;20065;-77
2021/08/12 06:17:39;;;;;;;15.75;6.03;;;;;;;18.59;72.11;100226.31;1630870;47;20034;-80
2021/08/12 06:19:14;;;;;;;16.40;6.05;;;;;;;18.67;72.15;100211.81;1629796;47;20041;-81
2021/08/12 06:20:47;;;;;;;22.90;6.45;;;;;;;18.71;71.72;100218.50;1630657;54;20050;-84
2021/08/12 06:22:22;;;;;;;23.95;7.65;;;;;;;18.70;72.10;100225.00;1630226;47;20039;-80
2021/08/12 06:23:55;;;;;;;11.85;5.65;;;;;;;18.76;71.81;100215.22;1630554;54;20038;-81
2021/08/12 06:25:29;;;;;;;17.17;6.22;;;;;;;18.80;71.81;100216.53;1630223;54;20069;-82
2021/08/12 06:27:03;;;;;;;9.30;4.93;;;;;;;18.88;72.05;100210.97;1630224;54;20738;-77
2021/08/12 06:28:37;;;;;;;20.17;6.78;;;;;;;18.94;71.80;100212.09;1629912;54;20212;-78
2021/08/12 06:30:13;;;;;;;15.90;6.47;;;;;;;18.99;71.51;100215.88;1630679;31;20741;-81
2021/08/12 06:31:46;;;;;;;9.80;5.75;;;;;;;19.07;71.77;100211.34;1628196;54;20077;-81
2021/08/12 06:33:20;;;;;;;11.20;6.18;;;;;;;19.14;71.29;100206.81;1630736;31;20674;-80
2021/08/12 06:34:55;;;;;;;13.75;7.15;;;;;;;19.18;71.84;100197.28;1629070;54;20065;-78
2021/08/12 06:36:29;;;;;;;11.23;5.78;;;;;;;19.14;71.92;100202.25;1630486;54;20046;-80
2021/08/12 06:38:03;;;;;;;9.85;5.50;;;;;;;19.15;71.77;100195.81;1630477;54;20042;-77
2021/08/12 06:39:36;;;;;;;11.52;5.45;;;;;;;19.13;72.21;100202.44;1632612;39;20620;-79
2021/08/12 06:41:10;;;;;;;7.22;4.45;;;;;;;19.09;72.32;100202.00;1630209;47;20065;-78
2021/08/12 06:42:44;;;;;;;11.55;5.32;;;;;;;19.14;72.27;100201.41;1630469;46;20097;-77
2021/08/12 06:44:17;;;;;;;6.82;4.50;;;;;;;19.23;72.18;100200.22;1630164;54;20058;-79
2021/08/12 06:45:51;;;;;;;8.65;5.57;;;;;;;19.34;71.67;100206.97;1629444;47;20061;-79
2021/08/12 06:47:25;;;;;;;17.27;5.60;;;;;;;19.41;71.62;100205.13;1629302;54;20065;-79
2021/08/12 06:48:58;;;;;;;8.35;4.88;;;;;;;19.47;71.07;100211.63;1630166;54;20054;-78
2021/08/12 06:50:33;;;;;;;10.40;5.15;;;;;;;19.56;71.19;100210.44;1629868;54;20046;-78
2021/08/12 06:52:08;;;;;;;10.48;5.28;;;;;;;19.63;70.68;100210.47;1629335;47;20049;-78
2021/08/12 06:53:42;;;;;;;9.43;5.40;;;;;;;19.72;70.81;100209.28;1629787;47;20132;-77
2021/08/12 06:55:16;;;;;;;16.00;5.53;;;;;;;19.75;70.23;100211.56;1628880;54;20066;-80
2021/08/12 06:56:50;;;;;;;17.98;6.60;;;;;;;19.73;69.96;100216.38;1627744;47;20145;-80
2021/08/12 06:58:23;;;;;;;13.32;5.47;;;;;;;19.72;70.11;100217.41;1627263;54;20141;-79
2021/08/12 06:59:57;;;;;;;15.85;9.38;;;;;;;19.80;69.97;100217.22;1628795;39;20473;-79
2021/08/12 07:01:31;;;;;;;13.95;6.93;;;;;;;19.89;69.67;100212.50;1627744;47;20130;-81
2021/08/12 07:03:05;;;;;;;15.27;6.43;;;;;;;19.96;69.53;100217.94;1628674;39;20365;-81
2021/08/12 07:04:38;;;;;;;13.43;6.07;;;;;;;20.02;69.48;100211.72;1628071;54;20070;-81
2021/08/12 07:06:13;;;;;;;13.90;5.70;;;;;;;20.12;69.10;100219.47;1627484;47;20119;-81
2021/08/12 07:07:47;;;;;;;16.35;6.57;;;;;;;20.21;68.66;100222.84;1627764;47;20041;-80
2021/08/12 07:09:21;;;;;;;13.20;6.10;;;;;;;20.21;68.64;100218.25;1629072;39;20597;-81
2021/08/12 07:10:54;;;;;;;13.05;5.72;;;;;;;20.27;68.64;100222.03;1627869;54;20049;-80
2021/08/12 07:12:28;;;;;;;9.88;4.75;;;;;;;20.35;68.29;100219.13;1627870;54;20050;-81
2021/08/12 07:14:01;;;;;;;13.80;5.90;;;;;;;20.37;68.01;100222.47;1627452;54;20789;-80
2021/08/12 07:15:35;;;;;;;10.90;5.88;;;;;;;20.43;67.90;100220.81;1627448;47;20170;-82
2021/08/12 07:17:08;;;;;;;11.57;5.22;;;;;;;20.52;67.95;100222.31;1627735;54;20142;-80
2021/08/12 07:18:42;;;;;;;15.18;5.90;;;;;;;20.68;67.50;100221.06;1628123;54;20090;-79